Puyallup, Washington
Current Conditions -  °F | °C
As of 5:58 AM on Thursday 27 Nov 2014 (Local Time) from KTCM Reporting Station
Scattered Clouds Scattered Clouds  
Wind Chill: 51°   Ceiling: Unl
Heat Index: 51°   Visibility: 10mi
Dew Point: 51°   Wind: 15mph
Humidity: 99%   Direction: 180°S
Pressure: 29.85"   Gusts: NA
Location:  47.19°N, 122.29°W
Report Text: KTCM 271358Z AUTO 18013KT 10SM SCT030 11/11 A2985 RMK AO2 RAB1304E1313DZE1258B1313E1315 SLP112 P0000 T01070106 $
Loading
Personal Weather Stations






























Interactive Weather Map New forecast layout! Learn more

10-Day Weather Forecast

Advertisements
Track Severe Weather on mobile